sensor_id;sensor_type;location;lat;lon;timestamp;pressure;altitude;pressure_sealevel;temperature;humidity
13050;BME280;6591;51.446;5.404;2023-04-29T00:01:46;101151.72;;;17.07;55.73
13050;BME280;6591;51.446;5.404;2023-04-29T00:04:14;101138.41;;;17.05;56.04
13050;BME280;6591;51.446;5.404;2023-04-29T00:06:42;101145.69;;;17.03;56.13
13050;BME280;6591;51.446;5.404;2023-04-29T00:09:09;101145.59;;;17.05;56.00
13050;BME280;6591;51.446;5.404;2023-04-29T00:11:36;101151.94;;;17.04;55.99
13050;BME280;6591;51.446;5.404;2023-04-29T00:14:03;101156.34;;;17.05;56.21
13050;BME280;6591;51.446;5.404;2023-04-29T00:16:30;101149.25;;;17.04;56.08
13050;BME280;6591;51.446;5.404;2023-04-29T00:18:57;101160.94;;;17.03;56.03
13050;BME280;6591;51.446;5.404;2023-04-29T00:21:25;101159.44;;;16.99;55.75
13050;BME280;6591;51.446;5.404;2023-04-29T00:23:53;101159.84;;;16.92;55.81
13050;BME280;6591;51.446;5.404;2023-04-29T00:26:20;101157.47;;;16.88;55.82
13050;BME280;6591;51.446;5.404;2023-04-29T00:28:47;101162.19;;;16.84;55.72
13050;BME280;6591;51.446;5.404;2023-04-29T00:31:15;101165.25;;;16.78;55.74
13050;BME280;6591;51.446;5.404;2023-04-29T00:33:42;101169.13;;;16.74;55.89
13050;BME280;6591;51.446;5.404;2023-04-29T00:36:09;101172.94;;;16.70;55.77
13050;BME280;6591;51.446;5.404;2023-04-29T00:38:36;101174.09;;;16.66;55.78
13050;BME280;6591;51.446;5.404;2023-04-29T00:41:03;101170.75;;;16.63;55.63
13050;BME280;6591;51.446;5.404;2023-04-29T00:43:30;101176.31;;;16.60;55.86
13050;BME280;6591;51.446;5.404;2023-04-29T00:45:58;101171.94;;;16.59;55.72
13050;BME280;6591;51.446;5.404;2023-04-29T00:48:25;101176.56;;;16.55;55.76
13050;BME280;6591;51.446;5.404;2023-04-29T00:50:52;101175.84;;;16.53;56.26
13050;BME280;6591;51.446;5.404;2023-04-29T00:53:20;101178.41;;;16.54;55.71
13050;BME280;6591;51.446;5.404;2023-04-29T00:55:50;101176.78;;;16.52;55.50
13050;BME280;6591;51.446;5.404;2023-04-29T00:58:18;101181.50;;;16.48;55.67
13050;BME280;6591;51.446;5.404;2023-04-29T01:00:47;101188.84;;;16.45;55.52
13050;BME280;6591;51.446;5.404;2023-04-29T01:03:15;101187.03;;;16.45;56.18
13050;BME280;6591;51.446;5.404;2023-04-29T01:05:54;101180.25;;;16.40;55.78
13050;BME280;6591;51.446;5.404;2023-04-29T01:08:37;101182.19;;;16.38;55.65
13050;BME280;6591;51.446;5.404;2023-04-29T01:11:11;101186.56;;;16.39;55.68
13050;BME280;6591;51.446;5.404;2023-04-29T01:13:50;101187.72;;;16.35;55.60
13050;BME280;6591;51.446;5.404;2023-04-29T01:16:37;101188.78;;;16.32;55.82
13050;BME280;6591;51.446;5.404;2023-04-29T01:19:37;101201.22;;;16.33;55.64
13050;BME280;6591;51.446;5.404;2023-04-29T01:22:06;101207.44;;;16.34;55.80
13050;BME280;6591;51.446;5.404;2023-04-29T01:24:34;101208.31;;;16.34;55.85
13050;BME280;6591;51.446;5.404;2023-04-29T01:30:30;101208.59;;;16.30;55.68
13050;BME280;6591;51.446;5.404;2023-04-29T01:35:59;101211.47;;;16.27;55.71
13050;BME280;6591;51.446;5.404;2023-04-29T01:38:36;101215.13;;;16.26;55.40
13050;BME280;6591;51.446;5.404;2023-04-29T01:41:29;101209.09;;;16.22;55.22
13050;BME280;6591;51.446;5.404;2023-04-29T01:44:09;101221.50;;;16.23;55.56
13050;BME280;6591;51.446;5.404;2023-04-29T01:46:40;101219.81;;;16.22;55.15
13050;BME280;6591;51.446;5.404;2023-04-29T01:49:08;101215.28;;;16.23;55.46
13050;BME280;6591;51.446;5.404;2023-04-29T01:51:36;101221.63;;;16.22;55.73
13050;BME280;6591;51.446;5.404;2023-04-29T01:54:04;101221.50;;;16.23;55.27
13050;BME280;6591;51.446;5.404;2023-04-29T01:56:31;101226.88;;;16.23;55.54
13050;BME280;6591;51.446;5.404;2023-04-29T01:59:06;101226.88;;;16.23;55.20
13050;BME280;6591;51.446;5.404;2023-04-29T02:01:52;101223.25;;;16.24;55.25
13050;BME280;6591;51.446;5.404;2023-04-29T02:04:20;101229.38;;;16.26;54.98
13050;BME280;6591;51.446;5.404;2023-04-29T02:06:47;101231.09;;;16.27;55.18
13050;BME280;6591;51.446;5.404;2023-04-29T02:09:22;101223.91;;;16.28;55.04
13050;BME280;6591;51.446;5.404;2023-04-29T02:11:54;101238.06;;;16.30;54.87
13050;BME280;6591;51.446;5.404;2023-04-29T02:14:21;101237.22;;;16.29;54.88
13050;BME280;6591;51.446;5.404;2023-04-29T02:16:49;101241.53;;;16.32;55.26
13050;BME280;6591;51.446;5.404;2023-04-29T02:19:17;101245.06;;;16.32;54.98
13050;BME280;6591;51.446;5.404;2023-04-29T02:21:44;101245.94;;;16.33;54.85
13050;BME280;6591;51.446;5.404;2023-04-29T02:24:11;101248.63;;;16.33;55.08
13050;BME280;6591;51.446;5.404;2023-04-29T02:26:38;101246.91;;;16.32;55.07
13050;BME280;6591;51.446;5.404;2023-04-29T02:29:05;101250.44;;;16.32;55.27
13050;BME280;6591;51.446;5.404;2023-04-29T02:31:32;101251.19;;;16.34;54.96
13050;BME280;6591;51.446;5.404;2023-04-29T02:33:59;101255.69;;;16.34;54.96
13050;BME280;6591;51.446;5.404;2023-04-29T02:36:26;101258.28;;;16.35;54.74
13050;BME280;6591;51.446;5.404;2023-04-29T02:38:54;101255.50;;;16.37;54.77
13050;BME280;6591;51.446;5.404;2023-04-29T02:41:22;101276.00;;;16.38;54.91
13050;BME280;6591;51.446;5.404;2023-04-29T02:43:49;101269.00;;;16.35;54.69
13050;BME280;6591;51.446;5.404;2023-04-29T02:46:16;101272.53;;;16.36;54.71
13050;BME280;6591;51.446;5.404;2023-04-29T02:48:44;101277.69;;;16.39;54.90
13050;BME280;6591;51.446;5.404;2023-04-29T02:51:13;101276.09;;;16.36;54.82
13050;BME280;6591;51.446;5.404;2023-04-29T02:53:40;101279.72;;;16.35;54.64
13050;BME280;6591;51.446;5.404;2023-04-29T02:56:07;101278.84;;;16.35;54.64
13050;BME280;6591;51.446;5.404;2023-04-29T02:58:34;101289.78;;;16.32;54.56
13050;BME280;6591;51.446;5.404;2023-04-29T03:01:01;101286.53;;;16.27;54.53
13050;BME280;6591;51.446;5.404;2023-04-29T03:03:30;101296.47;;;16.25;54.72
13050;BME280;6591;51.446;5.404;2023-04-29T03:05:58;101291.31;;;16.22;54.91
13050;BME280;6591;51.446;5.404;2023-04-29T03:08:25;101290.53;;;16.20;54.65
13050;BME280;6591;51.446;5.404;2023-04-29T03:10:52;101294.16;;;16.19;54.71
13050;BME280;6591;51.446;5.404;2023-04-29T03:13:19;101293.19;;;16.20;54.59
13050;BME280;6591;51.446;5.404;2023-04-29T03:15:47;101292.41;;;16.18;55.01
13050;BME280;6591;51.446;5.404;2023-04-29T03:18:14;101290.72;;;16.17;54.99
13050;BME280;6591;51.446;5.404;2023-04-29T03:20:41;101296.25;;;16.14;54.90
13050;BME280;6591;51.446;5.404;2023-04-29T03:23:08;101287.47;;;16.12;55.17
13050;BME280;6591;51.446;5.404;2023-04-29T03:25:35;101300.06;;;16.09;54.76
13050;BME280;6591;51.446;5.404;2023-04-29T03:28:03;101303.63;;;16.10;55.23
13050;BME280;6591;51.446;5.404;2023-04-29T03:30:31;101308.19;;;16.08;55.06
13050;BME280;6591;51.446;5.404;2023-04-29T03:32:58;101308.41;;;16.05;54.87
13050;BME280;6591;51.446;5.404;2023-04-29T03:35:27;101309.44;;;16.02;54.87
13050;BME280;6591;51.446;5.404;2023-04-29T03:38:17;101306.94;;;15.99;55.19
13050;BME280;6591;51.446;5.404;2023-04-29T03:40:45;101310.66;;;15.97;55.29
13050;BME280;6591;51.446;5.404;2023-04-29T03:43:13;101310.84;;;15.94;55.05
13050;BME280;6591;51.446;5.404;2023-04-29T03:45:40;101312.69;;;15.93;55.42
13050;BME280;6591;51.446;5.404;2023-04-29T03:48:08;101313.75;;;15.91;55.47
13050;BME280;6591;51.446;5.404;2023-04-29T03:50:36;101305.88;;;15.88;55.23
13050;BME280;6591;51.446;5.404;2023-04-29T03:53:03;101312.09;;;15.88;55.55
13050;BME280;6591;51.446;5.404;2023-04-29T03:55:30;101317.53;;;15.87;55.30
13050;BME280;6591;51.446;5.404;2023-04-29T03:57:58;101313.97;;;15.86;55.53
13050;BME280;6591;51.446;5.404;2023-04-29T04:00:26;101324.53;;;15.89;55.38
13050;BME280;6591;51.446;5.404;2023-04-29T04:02:58;101323.66;;;15.89;55.38
13050;BME280;6591;51.446;5.404;2023-04-29T04:05:28;101325.47;;;15.88;55.40
13050;BME280;6591;51.446;5.404;2023-04-29T04:08:02;101328.16;;;15.88;55.66
13050;BME280;6591;51.446;5.404;2023-04-29T04:10:36;101329.09;;;15.87;55.61
13050;BME280;6591;51.446;5.404;2023-04-29T04:13:11;101335.41;;;15.86;55.41
13050;BME280;6591;51.446;5.404;2023-04-29T04:15:38;101335.31;;;15.88;55.38
13050;BME280;6591;51.446;5.404;2023-04-29T04:18:05;101339.81;;;15.87;55.33
13050;BME280;6591;51.446;5.404;2023-04-29T04:20:35;101337.13;;;15.87;55.35
13050;BME280;6591;51.446;5.404;2023-04-29T04:23:02;101345.16;;;15.87;55.41
13050;BME280;6591;51.446;5.404;2023-04-29T04:25:30;101341.47;;;15.90;55.23
13050;BME280;6591;51.446;5.404;2023-04-29T04:28:10;101350.38;;;15.90;55.18
13050;BME280;6591;51.446;5.404;2023-04-29T04:30:52;101353.78;;;15.92;55.73
13050;BME280;6591;51.446;5.404;2023-04-29T04:33:19;101351.13;;;15.92;55.29
13050;BME280;6591;51.446;5.404;2023-04-29T04:35:48;101355.44;;;15.95;55.48
13050;BME280;6591;51.446;5.404;2023-04-29T04:38:15;101358.78;;;15.98;55.30
13050;BME280;6591;51.446;5.404;2023-04-29T04:40:43;101363.22;;;15.99;54.97
13050;BME280;6591;51.446;5.404;2023-04-29T04:43:36;101369.59;;;15.97;55.16
13050;BME280;6591;51.446;5.404;2023-04-29T04:46:15;101368.06;;;15.93;54.96
13050;BME280;6591;51.446;5.404;2023-04-29T04:49:06;101374.00;;;15.98;55.39
13050;BME280;6591;51.446;5.404;2023-04-29T04:51:43;101382.91;;;15.98;55.42
13050;BME280;6591;51.446;5.404;2023-04-29T04:54:11;101387.22;;;16.01;55.12
13050;BME280;6591;51.446;5.404;2023-04-29T04:56:38;101396.13;;;16.01;55.36
13050;BME280;6591;51.446;5.404;2023-04-29T04:59:06;101393.34;;;16.03;55.35
13050;BME280;6591;51.446;5.404;2023-04-29T05:01:36;101401.38;;;16.03;55.13
13050;BME280;6591;51.446;5.404;2023-04-29T05:04:03;101398.69;;;16.03;55.23
13050;BME280;6591;51.446;5.404;2023-04-29T05:06:31;101401.28;;;16.04;55.24
13050;BME280;6591;51.446;5.404;2023-04-29T05:08:59;101403.97;;;16.04;55.24
13050;BME280;6591;51.446;5.404;2023-04-29T05:11:26;101407.59;;;16.03;55.15
13050;BME280;6591;51.446;5.404;2023-04-29T05:14:06;101407.59;;;16.03;55.27
13050;BME280;6591;51.446;5.404;2023-04-29T05:16:34;101407.59;;;16.03;55.17
13050;BME280;6591;51.446;5.404;2023-04-29T05:19:01;101408.47;;;16.04;55.21
13050;BME280;6591;51.446;5.404;2023-04-29T05:21:32;101414.69;;;16.04;55.13
13050;BME280;6591;51.446;5.404;2023-04-29T05:24:01;101411.94;;;16.06;55.35
13050;BME280;6591;51.446;5.404;2023-04-29T05:26:28;101418.16;;;16.06;55.06
13050;BME280;6591;51.446;5.404;2023-04-29T05:28:58;101418.16;;;16.06;55.19
13050;BME280;6591;51.446;5.404;2023-04-29T05:31:29;101418.16;;;16.06;54.82
13050;BME280;6591;51.446;5.404;2023-04-29T05:34:00;101425.22;;;16.07;55.04
13050;BME280;6591;51.446;5.404;2023-04-29T05:36:28;101425.22;;;16.07;55.14
13050;BME280;6591;51.446;5.404;2023-04-29T05:38:56;101428.75;;;16.08;55.06
13050;BME280;6591;51.446;5.404;2023-04-29T05:41:24;101426.88;;;16.10;55.30
13050;BME280;6591;51.446;5.404;2023-04-29T05:44:07;101428.69;;;16.09;55.38
13050;BME280;6591;51.446;5.404;2023-04-29T05:46:34;101433.84;;;16.13;55.27
13050;BME280;6591;51.446;5.404;2023-04-29T05:49:01;101434.81;;;16.12;55.24
13050;BME280;6591;51.446;5.404;2023-04-29T05:51:29;101443.63;;;16.14;55.03
13050;BME280;6591;51.446;5.404;2023-04-29T05:53:57;101449.75;;;16.16;55.15
13050;BME280;6591;51.446;5.404;2023-04-29T05:56:28;101459.41;;;16.18;55.15
13050;BME280;6591;51.446;5.404;2023-04-29T05:58:55;101455.88;;;16.18;55.06
13050;BME280;6591;51.446;5.404;2023-04-29T06:01:25;101457.59;;;16.19;55.09
13050;BME280;6591;51.446;5.404;2023-04-29T06:03:52;101457.53;;;16.20;55.38
13050;BME280;6591;51.446;5.404;2023-04-29T06:06:40;101460.88;;;16.24;55.53
13050;BME280;6591;51.446;5.404;2023-04-29T06:09:07;101468.75;;;16.27;54.84
13050;BME280;6591;51.446;5.404;2023-04-29T06:11:50;101477.38;;;16.32;55.25
13050;BME280;6591;51.446;5.404;2023-04-29T06:14:20;101476.44;;;16.33;55.17
13050;BME280;6591;51.446;5.404;2023-04-29T06:16:47;101481.69;;;16.34;55.14
13050;BME280;6591;51.446;5.404;2023-04-29T06:19:15;101485.22;;;16.35;55.09
13050;BME280;6591;51.446;5.404;2023-04-29T06:21:42;101485.06;;;16.38;55.59
13050;BME280;6591;51.446;5.404;2023-04-29T06:24:10;101487.56;;;16.41;55.31
13050;BME280;6591;51.446;5.404;2023-04-29T06:26:37;101488.41;;;16.41;55.11
13050;BME280;6591;51.446;5.404;2023-04-29T06:29:04;101480.38;;;16.41;55.27
13050;BME280;6591;51.446;5.404;2023-04-29T06:31:32;101493.84;;;16.40;55.18
13050;BME280;6591;51.446;5.404;2023-04-29T06:34:02;101496.38;;;16.43;55.29
13050;BME280;6591;51.446;5.404;2023-04-29T06:36:31;101506.03;;;16.45;55.23
13050;BME280;6591;51.446;5.404;2023-04-29T06:39:04;101504.03;;;16.49;55.25
13050;BME280;6591;51.446;5.404;2023-04-29T06:42:10;101501.34;;;16.49;55.07
13050;BME280;6591;51.446;5.404;2023-04-29T06:44:39;101505.75;;;16.50;55.21
13050;BME280;6591;51.446;5.404;2023-04-29T06:47:32;101509.31;;;16.50;55.15
13050;BME280;6591;51.446;5.404;2023-04-29T06:50:06;101515.47;;;16.52;54.96
13050;BME280;6591;51.446;5.404;2023-04-29T06:52:33;101516.22;;;16.54;55.33
13050;BME280;6591;51.446;5.404;2023-04-29T06:55:00;101526.00;;;16.56;55.12
13050;BME280;6591;51.446;5.404;2023-04-29T06:57:27;101533.00;;;16.58;55.58
13050;BME280;6591;51.446;5.404;2023-04-29T06:59:54;101535.59;;;16.60;55.39
13050;BME280;6591;51.446;5.404;2023-04-29T07:02:23;101539.84;;;16.64;55.26
13050;BME280;6591;51.446;5.404;2023-04-29T07:04:50;101548.56;;;16.67;55.46
13050;BME280;6591;51.446;5.404;2023-04-29T07:07:18;101542.94;;;16.72;55.48
13050;BME280;6591;51.446;5.404;2023-04-29T07:09:45;101553.38;;;16.76;55.27
13050;BME280;6591;51.446;5.404;2023-04-29T07:12:13;101556.56;;;16.83;55.53
13050;BME280;6591;51.446;5.404;2023-04-29T07:14:40;101556.22;;;16.89;55.29
13050;BME280;6591;51.446;5.404;2023-04-29T07:17:07;101554.78;;;16.98;55.45
13050;BME280;6591;51.446;5.404;2023-04-29T07:19:36;101554.31;;;17.05;55.49
13050;BME280;6591;51.446;5.404;2023-04-29T07:22:03;101559.13;;;17.14;55.33
13050;BME280;6591;51.446;5.404;2023-04-29T07:24:30;101549.84;;;17.20;55.38
13050;BME280;6591;51.446;5.404;2023-04-29T07:26:57;101552.16;;;17.26;55.53
13050;BME280;6591;51.446;5.404;2023-04-29T07:29:24;101561.34;;;17.36;55.30
13050;BME280;6591;51.446;5.404;2023-04-29T07:31:51;101567.09;;;17.44;55.38
13050;BME280;6591;51.446;5.404;2023-04-29T07:34:18;101570.19;;;17.52;55.86
13050;BME280;6591;51.446;5.404;2023-04-29T07:36:45;101576.91;;;17.59;55.15
13050;BME280;6591;51.446;5.404;2023-04-29T07:39:12;101575.66;;;17.65;54.85
13050;BME280;6591;51.446;5.404;2023-04-29T07:41:43;101576.16;;;17.71;55.09
13050;BME280;6591;51.446;5.404;2023-04-29T07:44:10;101574.81;;;17.78;54.74
13050;BME280;6591;51.446;5.404;2023-04-29T07:46:37;101580.75;;;17.84;54.34
13050;BME280;6591;51.446;5.404;2023-04-29T07:49:04;101584.88;;;17.89;54.38
13050;BME280;6591;51.446;5.404;2023-04-29T07:51:33;101583.72;;;17.93;54.21
13050;BME280;6591;51.446;5.404;2023-04-29T07:54:00;101585.31;;;17.96;54.48
13050;BME280;6591;51.446;5.404;2023-04-29T07:56:27;101587.06;;;17.97;54.19
13050;BME280;6591;51.446;5.404;2023-04-29T07:58:54;101593.00;;;18.02;54.17
13050;BME280;6591;51.446;5.404;2023-04-29T08:01:21;101604.31;;;18.07;54.14
13050;BME280;6591;51.446;5.404;2023-04-29T08:03:48;101583.59;;;18.09;53.73
13050;BME280;6591;51.446;5.404;2023-04-29T08:06:18;101596.63;;;18.15;54.10
13050;BME280;6591;51.446;5.404;2023-04-29T08:08:48;101595.38;;;18.20;54.00
13050;BME280;6591;51.446;5.404;2023-04-29T08:11:20;101594.94;;;18.27;54.21
13050;BME280;6591;51.446;5.404;2023-04-29T08:13:50;101598.78;;;18.37;54.31
13050;BME280;6591;51.446;5.404;2023-04-29T08:16:17;101601.59;;;18.48;54.21
13050;BME280;6591;51.446;5.404;2023-04-29T08:18:44;101598.06;;;18.61;54.42
13050;BME280;6591;51.446;5.404;2023-04-29T08:21:11;101598.84;;;18.76;54.01
13050;BME280;6591;51.446;5.404;2023-04-29T08:23:39;101592.66;;;18.88;53.75
13050;BME280;6591;51.446;5.404;2023-04-29T08:26:06;101597.16;;;19.00;53.83
13050;BME280;6591;51.446;5.404;2023-04-29T08:28:35;101603.13;;;19.18;53.85
13050;BME280;6591;51.446;5.404;2023-04-29T08:31:02;101603.25;;;19.29;53.05
13050;BME280;6591;51.446;5.404;2023-04-29T08:33:29;101607.13;;;19.38;52.59
13050;BME280;6591;51.446;5.404;2023-04-29T08:35:59;101604.81;;;19.46;52.32
13050;BME280;6591;51.446;5.404;2023-04-29T08:38:29;101612.88;;;19.59;52.45
13050;BME280;6591;51.446;5.404;2023-04-29T08:40:57;101609.75;;;19.65;51.93
13050;BME280;6591;51.446;5.404;2023-04-29T08:43:25;101613.75;;;19.72;51.41
13050;BME280;6591;51.446;5.404;2023-04-29T08:45:54;101615.00;;;19.79;51.76
13050;BME280;6591;51.446;5.404;2023-04-29T08:48:21;101614.03;;;19.93;52.04
13050;BME280;6591;51.446;5.404;2023-04-29T08:50:48;101616.50;;;20.08;51.99
13050;BME280;6591;51.446;5.404;2023-04-29T08:53:16;101612.66;;;20.23;52.01
13050;BME280;6591;51.446;5.404;2023-04-29T08:55:46;101611.81;;;20.36;50.96
13050;BME280;6591;51.446;5.404;2023-04-29T08:58:15;101616.28;;;20.48;50.74
13050;BME280;6591;51.446;5.404;2023-04-29T09:00:43;101615.59;;;20.57;50.86
13050;BME280;6591;51.446;5.404;2023-04-29T09:03:26;101617.72;;;20.64;50.38
13050;BME280;6591;51.446;5.404;2023-04-29T09:05:59;101625.63;;;20.79;50.29
13050;BME280;6591;51.446;5.404;2023-04-29T09:08:26;101620.41;;;20.88;49.79
13050;BME280;6591;51.446;5.404;2023-04-29T09:10:55;101622.06;;;21.02;50.70
13050;BME280;6591;51.446;5.404;2023-04-29T09:13:25;101628.91;;;21.19;49.50
13050;BME280;6591;51.446;5.404;2023-04-29T09:15:53;101624.25;;;21.32;49.21
13050;BME280;6591;51.446;5.404;2023-04-29T09:18:49;101625.00;;;21.34;48.03
13050;BME280;6591;51.446;5.404;2023-04-29T09:21:28;101623.41;;;21.42;48.20
13050;BME280;6591;51.446;5.404;2023-04-29T09:24:01;101628.59;;;21.45;47.62
13050;BME280;6591;51.446;5.404;2023-04-29T09:26:41;101631.78;;;21.39;47.35
13050;BME280;6591;51.446;5.404;2023-04-29T09:29:12;101631.28;;;21.34;47.36
13050;BME280;6591;51.446;5.404;2023-04-29T09:31:45;101627.94;;;21.31;47.39
13050;BME280;6591;51.446;5.404;2023-04-29T09:34:13;101632.75;;;21.38;47.86
13050;BME280;6591;51.446;5.404;2023-04-29T09:36:49;101636.22;;;21.51;47.47
13050;BME280;6591;51.446;5.404;2023-04-29T09:39:19;101643.38;;;21.64;47.17
13050;BME280;6591;51.446;5.404;2023-04-29T09:44:22;101638.09;;;21.84;46.30
13050;BME280;6591;51.446;5.404;2023-04-29T09:47:02;101643.50;;;21.84;45.64
13050;BME280;6591;51.446;5.404;2023-04-29T09:49:41;101651.25;;;21.89;46.00
13050;BME280;6591;51.446;5.404;2023-04-29T09:52:14;101644.16;;;21.99;46.40
13050;BME280;6591;51.446;5.404;2023-04-29T09:54:43;101646.75;;;22.12;45.92
13050;BME280;6591;51.446;5.404;2023-04-29T09:57:12;101650.16;;;22.25;45.84
13050;BME280;6591;51.446;5.404;2023-04-29T09:59:41;101646.19;;;22.40;45.25
13050;BME280;6591;51.446;5.404;2023-04-29T10:02:17;101651.56;;;22.62;45.43
13050;BME280;6591;51.446;5.404;2023-04-29T10:04:53;101654.59;;;22.91;45.08
13050;BME280;6591;51.446;5.404;2023-04-29T10:07:26;101644.97;;;23.19;45.68
13050;BME280;6591;51.446;5.404;2023-04-29T10:09:54;101648.28;;;23.43;45.20
13050;BME280;6591;51.446;5.404;2023-04-29T10:12:22;101658.81;;;23.57;44.14
13050;BME280;6591;51.446;5.404;2023-04-29T10:17:45;101659.53;;;23.39;41.82
13050;BME280;6591;51.446;5.404;2023-04-29T10:20:21;101666.41;;;23.22;41.63
13050;BME280;6591;51.446;5.404;2023-04-29T10:22:51;101663.16;;;23.07;41.82
13050;BME280;6591;51.446;5.404;2023-04-29T10:25:20;101662.81;;;23.01;42.39
13050;BME280;6591;51.446;5.404;2023-04-29T10:27:49;101665.91;;;22.96;42.63
13050;BME280;6591;51.446;5.404;2023-04-29T10:30:20;101660.97;;;23.01;43.36
13050;BME280;6591;51.446;5.404;2023-04-29T10:32:50;101667.72;;;23.07;43.24
13050;BME280;6591;51.446;5.404;2023-04-29T10:35:20;101660.28;;;23.09;42.27
13050;BME280;6591;51.446;5.404;2023-04-29T10:37:53;101664.13;;;23.06;41.86
13050;BME280;6591;51.446;5.404;2023-04-29T10:40:27;101666.38;;;23.01;41.53
13050;BME280;6591;51.446;5.404;2023-04-29T10:42:57;101667.94;;;23.04;42.17
13050;BME280;6591;51.446;5.404;2023-04-29T10:45:30;101664.38;;;23.03;41.93
13050;BME280;6591;51.446;5.404;2023-04-29T10:50:30;101669.44;;;23.08;42.14
13050;BME280;6591;51.446;5.404;2023-04-29T10:53:01;101671.34;;;23.17;42.11
13050;BME280;6591;51.446;5.404;2023-04-29T10:55:29;101669.00;;;23.23;41.69
13050;BME280;6591;51.446;5.404;2023-04-29T10:57:56;101664.88;;;23.29;42.00
13050;BME280;6591;51.446;5.404;2023-04-29T11:00:29;101664.75;;;23.31;41.96
13050;BME280;6591;51.446;5.404;2023-04-29T11:02:59;101669.66;;;23.37;41.60
13050;BME280;6591;51.446;5.404;2023-04-29T11:08:12;101670.44;;;23.28;39.92
13050;BME280;6591;51.446;5.404;2023-04-29T11:10:42;101678.41;;;23.29;40.77
13050;BME280;6591;51.446;5.404;2023-04-29T11:13:28;101687.56;;;23.28;40.87
13050;BME280;6591;51.446;5.404;2023-04-29T11:16:08;101671.78;;;23.33;40.66
13050;BME280;6591;51.446;5.404;2023-04-29T11:19:05;101676.53;;;23.41;40.73
13050;BME280;6591;51.446;5.404;2023-04-29T11:21:37;101679.72;;;23.46;41.03
13050;BME280;6591;51.446;5.404;2023-04-29T11:24:05;101677.75;;;23.48;40.59
13050;BME280;6591;51.446;5.404;2023-04-29T11:26:36;101678.63;;;23.48;40.19
13050;BME280;6591;51.446;5.404;2023-04-29T11:29:07;101680.47;;;23.48;40.50
13050;BME280;6591;51.446;5.404;2023-04-29T11:31:37;101687.00;;;23.45;39.78
13050;BME280;6591;51.446;5.404;2023-04-29T11:34:07;101681.81;;;23.42;39.60
13050;BME280;6591;51.446;5.404;2023-04-29T11:36:34;101678.38;;;23.40;39.75
13050;BME280;6591;51.446;5.404;2023-04-29T11:39:03;101677.78;;;23.37;39.17
13050;BME280;6591;51.446;5.404;2023-04-29T11:41:31;101682.84;;;23.30;39.38
13050;BME280;6591;51.446;5.404;2023-04-29T11:43:59;101695.81;;;23.27;39.86
13050;BME280;6591;51.446;5.404;2023-04-29T11:46:30;101682.66;;;23.22;39.27
13050;BME280;6591;51.446;5.404;2023-04-29T11:48:58;101684.50;;;23.21;39.87
13050;BME280;6591;51.446;5.404;2023-04-29T11:51:26;101692.06;;;23.18;39.46
13050;BME280;6591;51.446;5.404;2023-04-29T11:53:55;101686.63;;;23.18;40.18
13050;BME280;6591;51.446;5.404;2023-04-29T11:56:24;101691.50;;;23.24;40.37
13050;BME280;6591;51.446;5.404;2023-04-29T11:58:57;101687.28;;;23.31;39.97
13050;BME280;6591;51.446;5.404;2023-04-29T12:01:24;101691.91;;;23.40;40.06
13050;BME280;6591;51.446;5.404;2023-04-29T12:03:57;101687.97;;;23.44;39.96
13050;BME280;6591;51.446;5.404;2023-04-29T12:06:29;101686.88;;;23.47;39.50
13050;BME280;6591;51.446;5.404;2023-04-29T12:08:58;101685.28;;;23.44;39.11
13050;BME280;6591;51.446;5.404;2023-04-29T12:11:26;101684.16;;;23.47;39.37
13050;BME280;6591;51.446;5.404;2023-04-29T12:13:56;101675.78;;;23.50;39.47
13050;BME280;6591;51.446;5.404;2023-04-29T12:16:24;101682.25;;;23.58;39.77
13050;BME280;6591;51.446;5.404;2023-04-29T12:18:52;101684.38;;;23.76;40.09
13050;BME280;6591;51.446;5.404;2023-04-29T12:21:20;101680.31;;;23.91;39.79
13050;BME280;6591;51.446;5.404;2023-04-29T12:23:50;101681.69;;;24.16;40.19
13050;BME280;6591;51.446;5.404;2023-04-29T12:26:18;101688.13;;;24.45;40.07
13050;BME280;6591;51.446;5.404;2023-04-29T12:28:52;101688.63;;;24.79;39.79
13050;BME280;6591;51.446;5.404;2023-04-29T12:31:20;101683.41;;;25.06;39.24
13050;BME280;6591;51.446;5.404;2023-04-29T12:33:47;101686.97;;;25.26;38.73
13050;BME280;6591;51.446;5.404;2023-04-29T12:36:18;101686.66;;;25.39;38.24
13050;BME280;6591;51.446;5.404;2023-04-29T12:38:47;101684.66;;;25.50;37.88
13050;BME280;6591;51.446;5.404;2023-04-29T12:41:15;101680.94;;;25.61;38.25
13050;BME280;6591;51.446;5.404;2023-04-29T12:43:43;101685.50;;;25.70;37.75
13050;BME280;6591;51.446;5.404;2023-04-29T12:46:10;101687.22;;;25.71;37.03
13050;BME280;6591;51.446;5.404;2023-04-29T12:48:40;101695.13;;;25.74;37.47
13050;BME280;6591;51.446;5.404;2023-04-29T12:51:09;101688.06;;;25.81;37.55
13050;BME280;6591;51.446;5.404;2023-04-29T12:53:38;101687.78;;;25.84;37.26
13050;BME280;6591;51.446;5.404;2023-04-29T12:56:06;101693.63;;;25.89;37.14
13050;BME280;6591;51.446;5.404;2023-04-29T12:58:33;101692.59;;;26.00;36.83
13050;BME280;6591;51.446;5.404;2023-04-29T13:01:01;101696.59;;;26.05;36.85
13050;BME280;6591;51.446;5.404;2023-04-29T13:03:28;101688.94;;;26.19;36.76
13050;BME280;6591;51.446;5.404;2023-04-29T13:05:55;101693.50;;;26.37;37.36
13050;BME280;6591;51.446;5.404;2023-04-29T13:08:22;101684.66;;;26.53;36.73
13050;BME280;6591;51.446;5.404;2023-04-29T13:10:49;101689.03;;;26.64;36.08
13050;BME280;6591;51.446;5.404;2023-04-29T13:13:17;101687.97;;;26.74;35.46
13050;BME280;6591;51.446;5.404;2023-04-29T13:15:44;101694.66;;;26.80;35.79
13050;BME280;6591;51.446;5.404;2023-04-29T13:18:11;101693.06;;;26.87;35.34
13050;BME280;6591;51.446;5.404;2023-04-29T13:20:38;101680.69;;;26.92;35.61
13050;BME280;6591;51.446;5.404;2023-04-29T13:23:09;101691.25;;;26.95;34.92
13050;BME280;6591;51.446;5.404;2023-04-29T13:25:36;101686.53;;;26.97;35.05
13050;BME280;6591;51.446;5.404;2023-04-29T13:28:03;101694.41;;;27.01;34.83
13050;BME280;6591;51.446;5.404;2023-04-29T13:30:31;101689.09;;;26.99;35.00
13050;BME280;6591;51.446;5.404;2023-04-29T13:32:59;101696.19;;;27.10;35.19